Dest Fox Harbr Too — ZCXB6 — position and weather

sailwx.info

Track history (hours):
 
Tides and Currents Weather Stations Pressure Air Temp Water Temp Dewpoint Dewpoint Depression Visibility Wind Speed Wind Dir Waves Ship Positions

Dest Fox Harbr Too

Last reported at 2015-Jul-02 17:23 UTC. Time now 2015-Jul-02 21:26 UTC.
Position N 40°17' E 005°58'.

Length 50 m; draft 2.4 m.

Type: Pleasure craft. MMSI: 319370000.

Date/timePositionNaut miles runAvg speedWind from/ knotsBaromVisibWave heightAir tempDewpointWater temp
2015-Jul-02 17:23N 40°17' E 005°58'24511.8
2015-Jul-01 20:33N 41°37' E 011°05'90 1.9
2015-Jun-29 21:26N 40°55' E 012°51'0 0.0
2015-Jun-29 20:17N 40°55' E 012°51'1 0.1
2015-Jun-29 12:26N 40°55' E 012°50'26 0.9
2015-Jun-28 06:30N 40°46' E 013°23'1112.0
2015-Jun-28 05:33N 40°44' E 013°38'1211.8
2015-Jun-28 04:30N 40°41' E 013°54'1 0.1
2015-Jun-27 22:23N 40°42' E 013°54'0 0.0
2015-Jun-27 14:24N 40°42' E 013°54'4 4.4
2015-Jun-27 13:34N 40°41' E 013°59'1211.9
2015-Jun-27 12:33N 40°42' E 014°15'8 0.3
2015-Jun-26 09:26N 40°34' E 014°16'1 1.2
2015-Jun-26 08:33N 40°33' E 014°15'0 0.0
2015-Jun-26 06:33N 40°33' E 014°15'0 0.0
2015-Jun-26 05:24N 40°33' E 014°15'0 0.0
2015-Jun-26 04:33N 40°33' E 014°15'0 0.0
2015-Jun-26 03:33N 40°33' E 014°15'0 0.0
2015-Jun-26 02:27N 40°33' E 014°15'0 0.0
2015-Jun-26 01:33N 40°33' E 014°15'0 0.0
2015-Jun-26 00:27N 40°33' E 014°15'0 0.0
2015-Jun-25 23:27N 40°33' E 014°15'0 0.0
2015-Jun-25 22:30N 40°33' E 014°15'0 0.0
2015-Jun-25 21:27N 40°33' E 014°15'0 0.0
2015-Jun-25 20:30N 40°33' E 014°15'0 0.0
2015-Jun-25 19:33N 40°33' E 014°15'0 0.0
2015-Jun-25 15:33N 40°33' E 014°15'0 0.0
2015-Jun-25 13:33N 40°33' E 014°15'0 0.0
2015-Jun-25 12:33N 40°33' E 014°15'0 0.0
2015-Jun-25 11:33N 40°33' E 014°15'0 0.0
2015-Jun-25 10:30N 40°33' E 014°15'0 0.0
2015-Jun-25 08:33N 40°33' E 014°15'0 0.0
2015-Jun-25 07:18N 40°33' E 014°15'0 0.0
2015-Jun-25 06:27N 40°33' E 014°15'0 0.0
2015-Jun-25 05:33N 40°33' E 014°15'0 0.0
2015-Jun-25 04:33N 40°33' E 014°15'0 0.0
2015-Jun-25 03:33N 40°33' E 014°15'0 0.0
2015-Jun-25 02:27N 40°33' E 014°15'0 0.0
2015-Jun-25 01:24N 40°33' E 014°15'0 0.0
2015-Jun-25 00:33N 40°33' E 014°15'0 0.0
2015-Jun-24 23:24N 40°33' E 014°15'0 0.0
2015-Jun-24 22:33N 40°33' E 014°15'0 0.0
2015-Jun-24 21:27N 40°33' E 014°15'0 0.0
2015-Jun-24 20:33N 40°33' E 014°15'0 0.0
2015-Jun-24 19:33N 40°33' E 014°15'0 0.0
2015-Jun-24 18:27N 40°33' E 014°15'0 0.0
2015-Jun-24 17:30N 40°33' E 014°15'3 3.2
2015-Jun-24 16:32N 40°36' E 014°16'  
Track history (hours):
 
Tides and Currents Weather Stations Pressure Air Temp Water Temp Dewpoint Dewpoint Depression Visibility Wind Speed Wind Dir Waves Ship Positions

Dest Fox Harbr Too

Last reported at 2015-Jul-02 17:23 UTC. Time now 2015-Jul-02 21:26 UTC.
Position N 40°17' E 005°58'.

Length 50 m; draft 2.4 m.

Type: Pleasure craft. MMSI: 319370000.

Date/timePositionNaut miles runAvg speedWind from/ knotsBaromVisibWave heightAir tempDewpointWater temp
2015-Jul-02 17:23N 40°17' E 005°58'24511.8
2015-Jul-01 20:33N 41°37' E 011°05'90 1.9
2015-Jun-29 21:26N 40°55' E 012°51'0 0.0
2015-Jun-29 20:17N 40°55' E 012°51'1 0.1
2015-Jun-29 12:26N 40°55' E 012°50'26 0.9
2015-Jun-28 06:30N 40°46' E 013°23'1112.0
2015-Jun-28 05:33N 40°44' E 013°38'1211.8
2015-Jun-28 04:30N 40°41' E 013°54'1 0.1
2015-Jun-27 22:23N 40°42' E 013°54'0 0.0
2015-Jun-27 14:24N 40°42' E 013°54'4 4.4
2015-Jun-27 13:34N 40°41' E 013°59'1211.9
2015-Jun-27 12:33N 40°42' E 014°15'8 0.3
2015-Jun-26 09:26N 40°34' E 014°16'1 1.2
2015-Jun-26 08:33N 40°33' E 014°15'0 0.0
2015-Jun-26 06:33N 40°33' E 014°15'0 0.0
2015-Jun-26 05:24N 40°33' E 014°15'0 0.0
2015-Jun-26 04:33N 40°33' E 014°15'0 0.0
2015-Jun-26 03:33N 40°33' E 014°15'0 0.0
2015-Jun-26 02:27N 40°33' E 014°15'0 0.0
2015-Jun-26 01:33N 40°33' E 014°15'0 0.0
2015-Jun-26 00:27N 40°33' E 014°15'0 0.0
2015-Jun-25 23:27N 40°33' E 014°15'0 0.0
2015-Jun-25 22:30N 40°33' E 014°15'0 0.0
2015-Jun-25 21:27N 40°33' E 014°15'0 0.0
2015-Jun-25 20:30N 40°33' E 014°15'0 0.0
2015-Jun-25 19:33N 40°33' E 014°15'0 0.0
2015-Jun-25 15:33N 40°33' E 014°15'0 0.0
2015-Jun-25 13:33N 40°33' E 014°15'0 0.0
2015-Jun-25 12:33N 40°33' E 014°15'0 0.0
2015-Jun-25 11:33N 40°33' E 014°15'0 0.0
2015-Jun-25 10:30N 40°33' E 014°15'0 0.0
2015-Jun-25 08:33N 40°33' E 014°15'0 0.0
2015-Jun-25 07:18N 40°33' E 014°15'0 0.0
2015-Jun-25 06:27N 40°33' E 014°15'0 0.0
2015-Jun-25 05:33N 40°33' E 014°15'0 0.0
2015-Jun-25 04:33N 40°33' E 014°15'0 0.0
2015-Jun-25 03:33N 40°33' E 014°15'0 0.0
2015-Jun-25 02:27N 40°33' E 014°15'0 0.0
2015-Jun-25 01:24N 40°33' E 014°15'0 0.0
2015-Jun-25 00:33N 40°33' E 014°15'0 0.0
2015-Jun-24 23:24N 40°33' E 014°15'0 0.0
2015-Jun-24 22:33N 40°33' E 014°15'0 0.0
2015-Jun-24 21:27N 40°33' E 014°15'0 0.0
2015-Jun-24 20:33N 40°33' E 014°15'0 0.0
2015-Jun-24 19:33N 40°33' E 014°15'0 0.0
2015-Jun-24 18:27N 40°33' E 014°15'0 0.0
2015-Jun-24 17:30N 40°33' E 014°15'3 3.2
2015-Jun-24 16:32N 40°36' E 014°16'  

Dump ship's entire track history